Tropical Cyclones
[Index]
Main Index Home Page Stock Weather Photos Extreme Storms Discussion Storm News and Storm Chasing Reports Tropical Cyclones / Hurricanes / Typhoons Weather Data and Links Wild Fires / Bushfires Weather Observation Techniques Weather Picture Catalogue Tornado Pictures and Reports Stock Video Footage and DVDs for sale
Season 1999-2000 Tropical Cyclone NORMAN Track Map
Season 1999-2000 Summaries: [BoM-AU] [JTWC-AU] [JTWC-SIO] [JTWC-SPAC] [JTWC-SH]
<<- Previous TC | JTWC 1999-2000 Season | Next TC ->>

click for intensity scale information  Lat/long Grid: Show Hide

 Date Labels: Show Hide

Joint Typhoon Warning Centre Cyclone Data

Name: NORMAN

29 Feb 2000 12:00 UTC to 08 Mar 2000 18:00 UTC

    date/time    lat    long     hPa   cat  kts
2000-02-29 12   18.6   119.6                  25          
2000-02-29 18   18.8   118.6                  25          
2000-03-01 00   18.5   117.2                  25          
2000-03-01 06   18.4   116.3                  35          
2000-03-01 12   18.3   115.5            1     45          
2000-03-01 18   18.4   114.7            2     55          
2000-03-02 00   18.7   113.6            2     65          
2000-03-02 06   19.0   112.3            2     65          
2000-03-02 12   19.3   110.8            2     70          
2000-03-02 18   19.5   109.4            3     95          
2000-03-03 00   19.6   107.8            4    110          
2000-03-03 06   19.7   106.2            4    120          
2000-03-03 12   20.0   104.3            4    115          
2000-03-03 18   20.2   102.4            4    115          
2000-03-04 00   20.3   100.8            4    105          
2000-03-04 06   20.3    99.3            4    105          
2000-03-04 12   20.5    97.9            4    105          
2000-03-04 18   20.5    96.7            3     90          
2000-03-05 00   20.5    95.6            3     75          
2000-03-05 06   20.4    94.8            2     65          
2000-03-05 12   20.4    94.0            2     65          
2000-03-05 18   20.4    93.2            2     65          
2000-03-06 00   20.5    92.8            2     65          
2000-03-06 06   20.7    92.4            2     65          
2000-03-06 12   21.0    92.0            2     65          
2000-03-06 18   22.0    91.8            2     65          
2000-03-07 00   22.5    91.7            2     65          
2000-03-07 06   23.1    91.6            2     60          
2000-03-07 12   23.7    92.1            2     65          
2000-03-07 18   23.9    92.7            2     60          
2000-03-08 00   24.1    92.7            2     55          
2000-03-08 06   23.9    92.5            1     45          
2000-03-08 12   23.8    93.0                  30          
2000-03-08 18   23.9    93.9                  25          
Winds are 1-min average.

Tropical cyclone tracks developed by Michael Bath using data from the Joint Typhoon Warning Centre Best Tracks and Google Maps.


[Australian Severe Weather index] [Copyright Notice] [Email Contacts] [Search This Site] [Privacy Policy]
Document: tropical_cyclone_norman.htm Updated: 18 September 2016